Time;durP1;ratioP1;P1;durP2;ratioP2;P2;SDS_P1;SDS_P2;PMS_P1;PMS_P2;Temp;Humidity;BMP_temperature;BMP_pressure;BME280_temperature;BME280_humidity;BME280_pressure;Samples;Min_cycle;Max_cycle;Signal;HPM_P1;HPM_P2
2022/03/29 00:01:43;;;;;;;8.73;5.40;;;;;;;;;;5049012;28;20025;-46
2022/03/29 00:04:09;;;;;;;8.70;5.25;;;;;;;;;;5045569;28;20033;-50
2022/03/29 00:06:35;;;;;;;8.38;5.03;;;;;;;;;;5048660;28;20024;-50
2022/03/29 00:09:01;;;;;;;10.63;5.95;;;;;;;;;;5049421;28;20044;-52
2022/03/29 00:11:27;;;;;;;7.43;5.15;;;;;;;;;;5048653;28;20554;-51
2022/03/29 00:13:55;;;;;;;7.75;5.13;;;;;;;;;;5048960;28;20036;-52
2022/03/29 00:16:21;;;;;;;8.95;5.57;;;;;;;;;;5048372;28;20519;-50
2022/03/29 00:18:47;;;;;;;8.65;5.05;;;;;;;;;;5048001;28;20031;-46
2022/03/29 00:21:13;;;;;;;11.00;6.40;;;;;;;;;;5048170;28;20029;-50
2022/03/29 00:23:39;;;;;;;9.38;4.72;;;;;;;;;;5048476;28;20060;-47
2022/03/29 00:26:05;;;;;;;8.15;5.10;;;;;;;;;;5048790;28;20052;-49
2022/03/29 00:28:31;;;;;;;9.10;5.32;;;;;;;;;;5048201;28;20628;-52
2022/03/29 00:30:57;;;;;;;9.35;5.38;;;;;;;;;;5048713;28;20119;-49
2022/03/29 00:33:23;;;;;;;8.73;5.50;;;;;;;;;;5042560;28;20112;-51
2022/03/29 00:35:49;;;;;;;9.95;5.65;;;;;;;;;;5048219;28;20104;-50
2022/03/29 00:38:15;;;;;;;7.20;5.05;;;;;;;;;;5048445;28;20791;-53
2022/03/29 00:40:41;;;;;;;10.65;5.22;;;;;;;;;;5048649;28;20071;-51
2022/03/29 00:43:08;;;;;;;8.50;5.50;;;;;;;;;;5048851;28;20029;-54
2022/03/29 00:45:35;;;;;;;8.05;5.38;;;;;;;;;;5048532;28;20410;-54
2022/03/29 00:48:02;;;;;;;9.77;6.00;;;;;;;;;;5047659;28;20029;-53
2022/03/29 00:50:28;;;;;;;9.38;5.32;;;;;;;;;;5047283;28;20148;-53
2022/03/29 00:52:54;;;;;;;7.97;4.72;;;;;;;;;;5048037;28;20060;-52
2022/03/29 00:55:20;;;;;;;9.27;5.82;;;;;;;;;;5048401;28;20029;-52
2022/03/29 00:57:47;;;;;;;8.75;5.72;;;;;;;;;;5047615;28;20028;-53
2022/03/29 01:00:15;;;;;;;11.27;6.10;;;;;;;;;;5048181;28;20862;-53
2022/03/29 01:02:42;;;;;;;8.48;5.53;;;;;;;;;;5047410;28;20029;-50
2022/03/29 01:05:08;;;;;;;9.75;5.93;;;;;;;;;;5048273;28;20028;-53
2022/03/29 01:07:35;;;;;;;10.02;5.20;;;;;;;;;;5048600;28;20021;-52
2022/03/29 01:10:02;;;;;;;10.05;6.60;;;;;;;;;;5048234;28;20839;-53
2022/03/29 01:12:32;;;;;;;8.63;5.97;;;;;;;;;;5047630;28;20068;-48
2022/03/29 01:14:58;;;;;;;8.57;5.53;;;;;;;;;;5048209;28;20460;-50
2022/03/29 01:17:41;;;;;;;9.85;5.70;;;;;;;;;;5047668;28;20092;-53
2022/03/29 01:20:07;;;;;;;8.15;5.20;;;;;;;;;;5047667;28;20029;-52
2022/03/29 01:22:33;;;;;;;12.02;6.63;;;;;;;;;;5048108;28;20112;-52
2022/03/29 01:24:59;;;;;;;8.27;5.90;;;;;;;;;;5048071;28;20112;-52
2022/03/29 01:27:26;;;;;;;8.63;5.97;;;;;;;;;;5047377;28;20159;-53
2022/03/29 01:29:59;;;;;;;8.18;5.72;;;;;;;;;;5047946;28;20112;-53
2022/03/29 01:32:29;;;;;;;8.70;5.75;;;;;;;;;;5037692;28;20050;-52
2022/03/29 01:34:55;;;;;;;;;;;;;;;;;;5028741;28;20496;-49
2022/03/29 01:37:22;;;;;;;9.70;6.38;;;;;;;;;;5043922;28;19943;-52
2022/03/29 01:39:48;;;;;;;8.63;5.93;;;;;;;;;;5047726;28;20903;-51
2022/03/29 01:42:14;;;;;;;7.80;5.28;;;;;;;;;;5047541;28;20025;-48
2022/03/29 01:44:40;;;;;;;9.05;6.60;;;;;;;;;;5047840;28;20155;-48
2022/03/29 01:47:07;;;;;;;8.52;5.03;;;;;;;;;;5047130;28;20477;-53
2022/03/29 01:49:33;;;;;;;11.65;6.35;;;;;;;;;;5041722;28;20467;-52
2022/03/29 01:51:59;;;;;;;9.77;5.60;;;;;;;;;;5043889;28;20037;-49
2022/03/29 01:54:25;;;;;;;8.75;5.90;;;;;;;;;;5045578;28;20068;-49
2022/03/29 01:56:52;;;;;;;8.90;6.30;;;;;;;;;;5046692;28;20039;-51
2022/03/29 01:59:18;;;;;;;10.32;6.53;;;;;;;;;;5047313;28;20079;-53
2022/03/29 02:01:45;;;;;;;8.90;5.95;;;;;;;;;;5050246;28;20017;-53
2022/03/29 02:04:12;;;;;;;9.65;5.68;;;;;;;;;;5049615;28;20029;-52
2022/03/29 02:06:39;;;;;;;9.30;5.60;;;;;;;;;;5034701;28;20040;-49
2022/03/29 02:09:08;;;;;;;8.13;5.57;;;;;;;;;;5051376;28;20021;-52
2022/03/29 02:11:35;;;;;;;8.05;5.22;;;;;;;;;;5051031;28;20063;-50
2022/03/29 02:14:01;;;;;;;9.32;6.07;;;;;;;;;;5050731;28;20021;-52
2022/03/29 02:16:28;;;;;;;8.10;5.30;;;;;;;;;;5050815;28;20049;-50
2022/03/29 02:18:54;;;;;;;9.05;6.40;;;;;;;;;;5050353;28;20049;-53
2022/03/29 02:21:20;;;;;;;8.70;5.93;;;;;;;;;;5033830;28;20064;-50
2022/03/29 02:23:46;;;;;;;7.85;5.45;;;;;;;;;;5045374;28;20424;-49
2022/03/29 02:26:12;;;;;;;9.77;5.80;;;;;;;;;;5050537;28;20121;-47
2022/03/29 02:28:38;;;;;;;10.65;5.75;;;;;;;;;;5050474;28;20049;-51
2022/03/29 02:31:05;;;;;;;8.73;5.75;;;;;;;;;;5050653;28;20036;-52
2022/03/29 02:33:31;;;;;;;8.48;5.63;;;;;;;;;;5050655;28;20074;-52
2022/03/29 02:35:57;;;;;;;9.73;6.15;;;;;;;;;;5038974;28;20112;-52
2022/03/29 02:38:23;;;;;;;8.52;6.25;;;;;;;;;;5038139;28;20443;-47
2022/03/29 02:40:49;;;;;;;8.45;6.07;;;;;;;;;;5045064;28;20044;-48
2022/03/29 02:43:16;;;;;;;8.98;5.40;;;;;;;;;;5035293;28;20021;-47
2022/03/29 02:45:42;;;;;;;7.35;5.05;;;;;;;;;;5050405;28;20083;-48
2022/03/29 02:48:08;;;;;;;8.23;5.88;;;;;;;;;;5049411;28;20422;-50
2022/03/29 02:50:34;;;;;;;10.18;6.38;;;;;;;;;;5049307;28;20435;-50
2022/03/29 02:53:01;;;;;;;7.78;5.78;;;;;;;;;;5050445;28;20124;-52
2022/03/29 02:55:28;;;;;;;8.85;6.15;;;;;;;;;;5049697;28;20025;-53
2022/03/29 02:57:54;;;;;;;8.60;5.88;;;;;;;;;;5050251;28;20048;-51
2022/03/29 03:00:21;;;;;;;7.82;5.35;;;;;;;;;;5049994;28;20179;-48
2022/03/29 03:02:48;;;;;;;9.55;5.88;;;;;;;;;;5043337;28;20041;-52
2022/03/29 03:05:14;;;;;;;8.07;5.90;;;;;;;;;;5044684;28;20025;-48
2022/03/29 03:07:41;;;;;;;8.75;6.05;;;;;;;;;;5049817;28;20113;-51
2022/03/29 03:10:07;;;;;;;8.25;5.90;;;;;;;;;;5049586;28;20482;-53
2022/03/29 03:12:40;;;;;;;8.52;5.95;;;;;;;;;;5048312;28;20048;-51
2022/03/29 03:15:07;;;;;;;8.60;6.30;;;;;;;;;;5049389;28;20120;-52
2022/03/29 03:17:34;;;;;;;8.88;5.82;;;;;;;;;;5042870;28;20040;-49
2022/03/29 03:20:00;;;;;;;8.63;6.20;;;;;;;;;;5039016;28;20025;-51
2022/03/29 03:22:26;;;;;;;8.63;5.28;;;;;;;;;;5049595;28;20218;-51
2022/03/29 03:24:52;;;;;;;8.40;5.70;;;;;;;;;;5049665;28;20028;-50
2022/03/29 03:27:18;;;;;;;8.77;5.78;;;;;;;;;;5049132;28;20025;-50
2022/03/29 03:29:44;;;;;;;9.02;6.10;;;;;;;;;;5048969;28;20017;-47
2022/03/29 03:32:11;;;;;;;8.88;6.53;;;;;;;;;;5044207;28;20120;-52
2022/03/29 03:34:37;;;;;;;7.85;5.43;;;;;;;;;;5048966;28;20036;-48
2022/03/29 03:37:03;;;;;;;7.80;5.15;;;;;;;;;;5048914;28;20021;-48
2022/03/29 03:39:31;;;;;;;8.85;6.00;;;;;;;;;;5049386;28;20030;-49
2022/03/29 03:41:57;;;;;;;8.00;5.78;;;;;;;;;;5048868;28;20087;-48
2022/03/29 03:44:22;;;;;;;9.15;5.95;;;;;;;;;;5049204;28;20537;-50
2022/03/29 03:46:49;;;;;;;7.30;4.97;;;;;;;;;;5048914;28;20021;-48
2022/03/29 03:49:15;;;;;;;7.78;5.70;;;;;;;;;;5028865;28;20061;-49
2022/03/29 03:51:41;;;;;;;8.68;6.07;;;;;;;;;;5047297;28;20040;-48
2022/03/29 03:54:07;;;;;;;8.00;5.63;;;;;;;;;;5048986;28;20036;-49
2022/03/29 03:56:33;;;;;;;7.68;5.82;;;;;;;;;;5048438;28;20124;-53
2022/03/29 03:58:59;;;;;;;8.40;5.88;;;;;;;;;;5048594;28;20029;-51
2022/03/29 04:01:25;;;;;;;7.40;5.38;;;;;;;;;;5044955;28;20044;-52
2022/03/29 04:03:51;;;;;;;7.55;5.18;;;;;;;;;;5042541;28;20096;-49
2022/03/29 04:06:17;;;;;;;8.95;6.03;;;;;;;;;;5048804;28;20566;-50
2022/03/29 04:08:43;;;;;;;8.23;5.75;;;;;;;;;;5048702;28;20052;-52
2022/03/29 04:11:09;;;;;;;7.95;5.68;;;;;;;;;;5048205;28;20037;-51
2022/03/29 04:13:36;;;;;;;7.40;5.70;;;;;;;;;;5048699;28;20473;-50
2022/03/29 04:16:03;;;;;;;7.90;5.55;;;;;;;;;;5048404;28;20040;-50
2022/03/29 04:18:29;;;;;;;8.07;5.72;;;;;;;;;;5047580;28;20111;-52
2022/03/29 04:20:55;;;;;;;8.65;6.03;;;;;;;;;;5048257;28;20037;-49
2022/03/29 04:23:21;;;;;;;8.23;4.80;;;;;;;;;;5047947;28;20064;-48
2022/03/29 04:25:47;;;;;;;7.20;5.18;;;;;;;;;;5047480;28;20025;-47
2022/03/29 04:28:13;;;;;;;7.45;5.38;;;;;;;;;;5048106;28;20457;-48
2022/03/29 04:30:39;;;;;;;8.48;6.30;;;;;;;;;;5049052;28;20021;-52
2022/03/29 04:33:06;;;;;;;8.50;5.30;;;;;;;;;;5047302;28;20100;-48
2022/03/29 04:35:32;;;;;;;7.90;5.40;;;;;;;;;;5049309;28;20032;-50
2022/03/29 04:37:58;;;;;;;20.67;14.20;;;;;;;;;;5048945;28;20029;-50
2022/03/29 04:40:24;;;;;;;25.10;19.58;;;;;;;;;;5047162;28;20092;-47
2022/03/29 04:42:52;;;;;;;24.75;18.85;;;;;;;;;;5048512;28;20051;-46
2022/03/29 04:45:18;;;;;;;28.00;20.70;;;;;;;;;;5049102;28;20021;-48
2022/03/29 04:47:45;;;;;;;26.15;20.98;;;;;;;;;;5047840;28;20103;-50
2022/03/29 04:50:11;;;;;;;28.90;19.60;;;;;;;;;;5048615;28;20589;-49
2022/03/29 04:52:44;;;;;;;32.30;20.25;;;;;;;;;;5048291;28;20071;-49
2022/03/29 04:55:10;;;;;;;32.60;22.35;;;;;;;;;;5037530;28;20064;-49
2022/03/29 04:57:36;;;;;;;28.83;20.65;;;;;;;;;;5046094;28;20044;-48
2022/03/29 05:00:04;;;;;;;31.73;23.55;;;;;;;;;;5048163;28;20104;-50
2022/03/29 05:02:31;;;;;;;31.70;22.67;;;;;;;;;;5046497;28;20031;-48
2022/03/29 05:04:58;;;;;;;29.27;20.90;;;;;;;;;;5048012;28;20125;-53
2022/03/29 05:07:24;;;;;;;26.30;22.08;;;;;;;;;;5048079;28;20166;-48
2022/03/29 05:09:50;;;;;;;26.52;21.48;;;;;;;;;;5047775;28;20546;-50
2022/03/29 05:12:17;;;;;;;27.52;19.98;;;;;;;;;;5031936;28;20579;-47
2022/03/29 05:14:43;;;;;;;32.75;21.15;;;;;;;;;;5044694;28;20033;-51
2022/03/29 05:17:09;;;;;;;28.83;19.80;;;;;;;;;;5047094;28;20021;-52
2022/03/29 05:19:35;;;;;;;27.67;21.25;;;;;;;;;;5042763;28;20021;-51
2022/03/29 05:22:02;;;;;;;28.60;21.15;;;;;;;;;;5045833;28;20083;-52
2022/03/29 05:24:28;;;;;;;29.60;20.98;;;;;;;;;;5045728;28;20017;-51
2022/03/29 05:26:54;;;;;;;30.15;21.25;;;;;;;;;;5047004;28;20112;-50
2022/03/29 05:29:20;;;;;;;31.08;21.83;;;;;;;;;;5046636;28;20153;-48
2022/03/29 05:31:46;;;;;;;29.25;20.52;;;;;;;;;;5044254;28;20818;-49
2022/03/29 05:34:16;;;;;;;25.98;20.27;;;;;;;;;;5036063;28;20499;-49
2022/03/29 05:36:44;;;;;;;24.38;20.25;;;;;;;;;;5050214;28;20035;-49
2022/03/29 05:39:16;;;;;;;25.52;19.83;;;;;;;;;;5050404;28;20108;-48
2022/03/29 05:41:43;;;;;;;24.92;18.52;;;;;;;;;;5045551;28;20049;-53
2022/03/29 05:44:09;;;;;;;25.02;18.00;;;;;;;;;;5035907;28;20107;-49
2022/03/29 05:49:20;;;;;;;26.02;18.90;;;;;;;;;;5051068;28;20086;-53
2022/03/29 05:51:47;;;;;;;23.90;18.33;;;;;;;;;;5050541;28;20152;-50
2022/03/29 05:54:13;;;;;;;26.90;18.05;;;;;;;;;;5051688;28;20079;-49
2022/03/29 05:56:39;;;;;;;38.05;17.92;;;;;;;;;;5050672;28;20505;-47
2022/03/29 05:59:08;;;;;;;24.45;17.58;;;;;;;;;;5051902;28;20098;-48
2022/03/29 06:01:34;;;;;;;35.13;18.10;;;;;;;;;;5051041;28;20029;-47
2022/03/29 06:04:06;;;;;;;32.90;20.95;;;;;;;;;;5051755;28;20127;-49
2022/03/29 06:06:34;;;;;;;27.60;18.90;;;;;;;;;;5051230;28;20037;-48
2022/03/29 06:09:00;;;;;;;28.10;17.10;;;;;;;;;;5051872;28;20036;-48
2022/03/29 06:11:26;;;;;;;29.40;17.70;;;;;;;;;;5043733;28;20240;-52
2022/03/29 06:13:52;;;;;;;37.40;19.58;;;;;;;;;;5051043;28;20126;-50
2022/03/29 06:16:20;;;;;;;42.53;18.83;;;;;;;;;;5051227;28;20475;-50
2022/03/29 06:18:46;;;;;;;34.03;18.38;;;;;;;;;;5051574;28;20071;-50
2022/03/29 06:21:12;;;;;;;26.08;17.65;;;;;;;;;;5051128;28;20047;-49
2022/03/29 06:23:38;;;;;;;32.42;18.35;;;;;;;;;;5051029;28;20029;-48
2022/03/29 06:26:04;;;;;;;30.88;19.33;;;;;;;;;;5050208;28;20529;-50
2022/03/29 06:28:31;;;;;;;30.15;17.90;;;;;;;;;;5042037;28;20120;-52
2022/03/29 06:30:57;;;;;;;33.45;16.92;;;;;;;;;;5050775;28;20041;-47
2022/03/29 06:33:23;;;;;;;35.97;17.50;;;;;;;;;;5051810;28;20032;-54
2022/03/29 06:35:49;;;;;;;35.20;16.83;;;;;;;;;;5050686;28;20537;-49
2022/03/29 06:38:21;;;;;;;28.17;16.20;;;;;;;;;;5051150;28;20036;-46
2022/03/29 06:40:47;;;;;;;32.88;15.93;;;;;;;;;;5042091;28;20088;-49
2022/03/29 06:43:13;;;;;;;24.45;14.38;;;;;;;;;;5041139;28;20037;-46
2022/03/29 06:45:40;;;;;;;23.55;15.40;;;;;;;;;;5049830;28;20056;-46
2022/03/29 06:48:07;;;;;;;26.02;15.18;;;;;;;;;;5048619;28;20035;-52
2022/03/29 06:50:34;;;;;;;22.27;13.98;;;;;;;;;;5049819;28;20025;-50
2022/03/29 06:53:00;;;;;;;23.33;13.85;;;;;;;;;;5049809;28;20407;-46
2022/03/29 06:55:28;;;;;;;22.35;13.93;;;;;;;;;;5049825;28;20033;-47
2022/03/29 06:57:54;;;;;;;27.55;15.82;;;;;;;;;;5048290;28;20048;-46
2022/03/29 07:00:20;;;;;;;24.70;15.13;;;;;;;;;;5048496;28;20029;-49
2022/03/29 07:02:48;;;;;;;24.00;14.13;;;;;;;;;;5050160;28;20135;-49
2022/03/29 07:05:14;;;;;;;27.25;13.88;;;;;;;;;;5048113;28;20037;-46
2022/03/29 07:07:41;;;;;;;38.90;14.20;;;;;;;;;;5049136;28;20531;-49
2022/03/29 07:13:02;;;;;;;28.75;14.43;;;;;;;;;;5049342;28;20392;-47
2022/03/29 07:15:29;;;;;;;19.65;12.07;;;;;;;;;;5048956;28;20025;-52
2022/03/29 07:17:55;;;;;;;23.50;12.38;;;;;;;;;;5048452;28;20017;-45
2022/03/29 07:20:21;;;;;;;19.95;12.25;;;;;;;;;;5048927;28;20029;-48
2022/03/29 07:22:49;;;;;;;26.70;13.27;;;;;;;;;;5048757;28;20025;-45
2022/03/29 07:25:16;;;;;;;27.40;12.45;;;;;;;;;;5041888;28;20476;-47
2022/03/29 07:27:42;;;;;;;26.70;12.45;;;;;;;;;;5032581;28;20088;-46
2022/03/29 07:30:10;;;;;;;30.63;12.77;;;;;;;;;;5036928;28;20029;-47
2022/03/29 07:32:42;;;;;;;23.55;12.13;;;;;;;;;;5048165;28;20541;-45
2022/03/29 07:35:08;;;;;;;27.88;12.82;;;;;;;;;;5049206;28;20024;-51
2022/03/29 07:37:35;;;;;;;19.90;13.38;;;;;;;;;;5049517;28;20458;-50
2022/03/29 07:40:01;;;;;;;29.45;13.20;;;;;;;;;;5041797;28;20025;-49
2022/03/29 07:42:27;;;;;;;22.40;13.00;;;;;;;;;;5048892;28;20040;-51
2022/03/29 07:44:53;;;;;;;26.10;13.20;;;;;;;;;;5044303;28;20091;-49
2022/03/29 07:47:20;;;;;;;22.33;12.65;;;;;;;;;;5048391;28;20033;-52
2022/03/29 07:49:46;;;;;;;23.00;12.38;;;;;;;;;;5049058;28;20029;-47
2022/03/29 07:52:13;;;;;;;21.45;12.85;;;;;;;;;;5048942;28;20087;-52
2022/03/29 07:54:39;;;;;;;22.17;13.23;;;;;;;;;;5048704;28;20489;-47
2022/03/29 07:57:08;;;;;;;19.50;12.82;;;;;;;;;;5048170;28;20664;-48
2022/03/29 07:59:35;;;;;;;17.98;12.10;;;;;;;;;;5047268;28;20025;-52
2022/03/29 08:02:01;;;;;;;19.60;12.85;;;;;;;;;;5047820;28;20554;-50
2022/03/29 08:04:27;;;;;;;21.48;13.25;;;;;;;;;;5044317;28;20029;-49
2022/03/29 08:06:53;;;;;;;23.10;14.32;;;;;;;;;;5049267;28;20037;-50
2022/03/29 08:09:19;;;;;;;19.08;13.63;;;;;;;;;;5048354;28;20020;-50
2022/03/29 08:11:45;;;;;;;24.05;14.60;;;;;;;;;;5047982;28;20127;-50
2022/03/29 08:14:12;;;;;;;21.67;14.65;;;;;;;;;;5048672;28;20120;-52
2022/03/29 08:16:39;;;;;;;23.98;14.57;;;;;;;;;;5034237;28;20637;-51
2022/03/29 08:19:05;;;;;;;23.83;15.43;;;;;;;;;;5030480;28;20780;-49
2022/03/29 08:21:50;;;;;;;22.27;15.95;;;;;;;;;;5048238;28;20021;-50
2022/03/29 08:24:17;;;;;;;21.15;15.63;;;;;;;;;;5048065;28;20025;-52
2022/03/29 08:26:43;;;;;;;20.33;14.80;;;;;;;;;;5037572;28;20017;-50
2022/03/29 08:29:11;;;;;;;21.45;14.38;;;;;;;;;;5043400;28;20220;-49
2022/03/29 08:31:37;;;;;;;26.48;14.00;;;;;;;;;;5047529;28;20120;-51
2022/03/29 08:34:04;;;;;;;21.27;14.50;;;;;;;;;;5048429;28;20371;-52
2022/03/29 08:36:30;;;;;;;23.00;13.85;;;;;;;;;;5047532;28;20035;-52
2022/03/29 08:38:56;;;;;;;23.80;14.35;;;;;;;;;;5034861;28;20041;-51
2022/03/29 08:41:24;;;;;;;22.38;15.35;;;;;;;;;;5047323;28;20021;-49
2022/03/29 08:43:50;;;;;;;23.40;15.75;;;;;;;;;;5047650;28;20089;-48
2022/03/29 08:46:16;;;;;;;22.15;14.85;;;;;;;;;;5047795;28;20058;-51
2022/03/29 08:48:44;;;;;;;22.13;14.00;;;;;;;;;;5047305;28;20031;-50
2022/03/29 08:51:11;;;;;;;23.35;15.05;;;;;;;;;;5046937;28;20044;-48
2022/03/29 08:53:37;;;;;;;22.08;15.98;;;;;;;;;;5047209;28;20498;-51
2022/03/29 08:56:03;;;;;;;27.40;14.27;;;;;;;;;;5044054;28;20603;-50
2022/03/29 08:58:29;;;;;;;22.55;15.57;;;;;;;;;;5052035;28;20043;-50
2022/03/29 09:00:55;;;;;;;22.55;14.18;;;;;;;;;;5042177;28;20094;-49
2022/03/29 09:03:21;;;;;;;21.88;14.63;;;;;;;;;;5043972;28;20470;-51
2022/03/29 09:05:49;;;;;;;23.27;15.52;;;;;;;;;;5036427;28;20029;-49
2022/03/29 09:08:16;;;;;;;22.42;14.90;;;;;;;;;;5045469;28;20032;-47
2022/03/29 09:10:51;;;;;;;22.95;16.35;;;;;;;;;;5036140;28;20036;-52
2022/03/29 09:13:27;;;;;;;24.60;16.23;;;;;;;;;;5042546;28;20525;-48
2022/03/29 09:15:54;;;;;;;23.02;16.65;;;;;;;;;;5051866;28;20086;-49
2022/03/29 09:18:21;;;;;;;23.58;16.27;;;;;;;;;;5051942;28;20032;-47
2022/03/29 09:20:47;;;;;;;25.85;17.42;;;;;;;;;;5052237;28;20029;-49
2022/03/29 09:23:17;;;;;;;20.15;14.68;;;;;;;;;;5051738;28;20025;-49
2022/03/29 09:25:50;;;;;;;;;;;;;;;;;;5052314;28;20075;-49
2022/03/29 09:28:16;;;;;;;20.58;14.05;;;;;;;;;;5051205;28;20383;-51
2022/03/29 09:30:44;;;;;;;20.10;14.55;;;;;;;;;;5043194;28;20506;-51
2022/03/29 09:33:12;;;;;;;19.83;14.63;;;;;;;;;;5035848;28;20079;-48
2022/03/29 09:35:57;;;;;;;21.17;15.43;;;;;;;;;;5050939;28;20060;-50
2022/03/29 09:38:37;;;;;;;21.80;15.50;;;;;;;;;;5051067;28;20437;-51
2022/03/29 09:41:04;;;;;;;19.23;13.45;;;;;;;;;;5051137;28;20835;-50
2022/03/29 09:43:31;;;;;;;22.77;16.25;;;;;;;;;;5048764;28;20049;-52
2022/03/29 09:46:01;;;;;;;21.38;15.27;;;;;;;;;;5043356;28;20034;-52
2022/03/29 09:48:40;;;;;;;21.13;15.15;;;;;;;;;;5045217;28;20029;-50
2022/03/29 09:51:15;;;;;;;19.63;15.40;;;;;;;;;;5048619;28;20598;-49
2022/03/29 09:53:43;;;;;;;19.65;15.73;;;;;;;;;;5045364;28;20021;-52
2022/03/29 09:56:10;;;;;;;19.40;14.13;;;;;;;;;;5051521;28;20021;-49
2022/03/29 09:58:36;;;;;;;23.67;15.75;;;;;;;;;;5051235;28;20040;-51
2022/03/29 10:01:03;;;;;;;19.38;15.13;;;;;;;;;;5051425;28;20035;-48
2022/03/29 10:03:29;;;;;;;20.48;15.20;;;;;;;;;;5050754;28;20108;-47
2022/03/29 10:06:01;;;;;;;20.00;15.20;;;;;;;;;;5050130;28;20033;-50
2022/03/29 10:11:16;;;;;;;22.35;15.63;;;;;;;;;;5051157;28;20039;-51
2022/03/29 10:13:43;;;;;;;23.63;15.83;;;;;;;;;;5044765;28;20029;-50
2022/03/29 10:16:12;;;;;;;21.45;15.65;;;;;;;;;;5049689;28;20036;-48
2022/03/29 10:18:38;;;;;;;20.45;14.43;;;;;;;;;;5045518;28;20029;-51
2022/03/29 10:21:05;;;;;;;22.88;14.95;;;;;;;;;;5050298;28;20499;-48
2022/03/29 10:23:32;;;;;;;24.83;16.08;;;;;;;;;;5044902;28;20036;-49
2022/03/29 10:25:59;;;;;;;19.55;14.95;;;;;;;;;;5047929;28;20043;-46
2022/03/29 10:28:28;;;;;;;22.40;15.52;;;;;;;;;;5040845;28;20159;-52
2022/03/29 10:30:56;;;;;;;24.47;15.27;;;;;;;;;;5037779;28;20025;-49
2022/03/29 10:33:33;;;;;;;23.20;14.77;;;;;;;;;;5035655;28;20102;-48
2022/03/29 10:35:59;;;;;;;21.40;15.25;;;;;;;;;;5042435;28;20483;-48
2022/03/29 10:38:53;;;;;;;19.60;14.05;;;;;;;;;;5040934;28;20040;-53
2022/03/29 10:41:29;;;;;;;21.63;14.82;;;;;;;;;;5040967;28;20029;-53
2022/03/29 10:43:54;;;;;;;24.98;15.25;;;;;;;;;;5038861;28;20487;-52
2022/03/29 10:46:25;;;;;;;20.83;16.13;;;;;;;;;;5049851;28;20086;-53
2022/03/29 10:48:51;;;;;;;;;;;;;;;;;;5050967;28;20033;-52
2022/03/29 10:51:24;;;;;;;21.35;14.43;;;;;;;;;;5049638;28;19963;-48
2022/03/29 10:53:50;;;;;;;24.95;14.85;;;;;;;;;;5049415;28;20082;-48
2022/03/29 10:56:16;;;;;;;36.55;26.45;;;;;;;;;;5049913;28;20052;-50
2022/03/29 10:59:01;;;;;;;34.10;22.27;;;;;;;;;;5050402;28;20120;-46
2022/03/29 11:01:27;;;;;;;25.70;19.50;;;;;;;;;;5049579;28;20082;-48
2022/03/29 11:03:59;;;;;;;28.33;19.58;;;;;;;;;;5048924;28;20395;-47
2022/03/29 11:06:26;;;;;;;26.50;18.83;;;;;;;;;;5049813;28;20475;-49
2022/03/29 11:09:02;;;;;;;24.15;17.67;;;;;;;;;;5029251;28;20124;-47
2022/03/29 11:11:37;;;;;;;25.90;18.02;;;;;;;;;;5044287;28;20147;-51
2022/03/29 11:14:22;;;;;;;24.95;16.50;;;;;;;;;;5049051;28;20479;-51
2022/03/29 11:16:48;;;;;;;23.05;16.38;;;;;;;;;;5048293;28;20025;-52
2022/03/29 11:19:32;;;;;;;25.85;17.27;;;;;;;;;;5047107;28;20029;-53
2022/03/29 11:22:00;;;;;;;21.25;15.55;;;;;;;;;;5048512;28;20456;-54
2022/03/29 11:24:26;;;;;;;24.65;17.40;;;;;;;;;;5048995;28;20544;-53
2022/03/29 11:26:54;;;;;;;21.35;16.10;;;;;;;;;;5048210;28;20528;-49
2022/03/29 11:29:21;;;;;;;21.52;16.27;;;;;;;;;;5049174;28;20049;-53
2022/03/29 11:31:50;;;;;;;21.98;15.45;;;;;;;;;;5048167;28;20475;-52
2022/03/29 11:34:16;;;;;;;21.77;14.73;;;;;;;;;;5047437;28;20033;-53
2022/03/29 11:36:43;;;;;;;18.20;14.13;;;;;;;;;;5047044;28;20523;-52
2022/03/29 11:39:21;;;;;;;22.45;14.80;;;;;;;;;;5048364;28;20085;-51
2022/03/29 11:41:47;;;;;;;22.55;15.98;;;;;;;;;;5045255;28;20048;-52
2022/03/29 11:44:15;;;;;;;19.67;14.27;;;;;;;;;;5048170;28;20021;-51
2022/03/29 11:46:43;;;;;;;19.55;14.30;;;;;;;;;;5047567;28;20025;-53
2022/03/29 11:49:09;;;;;;;18.05;13.48;;;;;;;;;;5048172;28;20021;-53
2022/03/29 11:51:35;;;;;;;18.70;13.38;;;;;;;;;;5048225;28;20047;-54
2022/03/29 11:54:01;;;;;;;22.77;14.52;;;;;;;;;;5048418;28;20119;-53
2022/03/29 11:56:27;;;;;;;20.65;13.70;;;;;;;;;;5047804;28;20673;-52
2022/03/29 11:58:56;;;;;;;17.55;14.02;;;;;;;;;;5047764;28;20021;-51
2022/03/29 12:01:28;;;;;;;18.95;14.18;;;;;;;;;;5047168;28;20039;-56
2022/03/29 12:03:59;;;;;;;19.67;12.70;;;;;;;;;;5040822;28;20032;-52
2022/03/29 12:06:28;;;;;;;17.35;13.38;;;;;;;;;;5040510;28;20043;-50
2022/03/29 12:08:56;;;;;;;19.23;13.65;;;;;;;;;;5038267;28;20086;-55
2022/03/29 12:11:24;;;;;;;16.85;12.63;;;;;;;;;;5047158;28;20037;-55
2022/03/29 12:13:59;;;;;;;20.52;13.23;;;;;;;;;;5037204;28;20029;-55
2022/03/29 12:16:26;;;;;;;15.32;12.70;;;;;;;;;;5048037;28;20063;-55
2022/03/29 12:18:52;;;;;;;15.95;11.82;;;;;;;;;;5048307;28;20394;-54
2022/03/29 12:21:20;;;;;;;15.20;12.07;;;;;;;;;;5048289;28;20459;-57
2022/03/29 12:23:47;;;;;;;22.95;15.35;;;;;;;;;;5047346;28;20140;-51
2022/03/29 12:26:14;;;;;;;31.75;20.20;;;;;;;;;;5048026;28;20025;-52
2022/03/29 12:28:41;;;;;;;25.48;17.98;;;;;;;;;;5042276;28;20044;-54
2022/03/29 12:31:15;;;;;;;23.02;16.67;;;;;;;;;;5043434;28;20028;-54
2022/03/29 12:33:41;;;;;;;24.40;16.63;;;;;;;;;;5049655;28;20014;-53
2022/03/29 12:36:11;;;;;;;22.65;15.98;;;;;;;;;;5044777;28;20036;-55
2022/03/29 12:38:42;;;;;;;21.77;16.20;;;;;;;;;;5033241;28;20485;-55
2022/03/29 12:41:08;;;;;;;21.23;16.70;;;;;;;;;;5033178;28;20025;-54
2022/03/29 12:43:35;;;;;;;19.60;15.48;;;;;;;;;;5033666;28;20100;-52
2022/03/29 12:46:02;;;;;;;22.92;15.63;;;;;;;;;;5035455;28;20480;-56
2022/03/29 12:48:28;;;;;;;21.67;16.08;;;;;;;;;;5035564;28;20098;-53
2022/03/29 12:50:54;;;;;;;20.05;15.98;;;;;;;;;;5031125;28;20041;-51
2022/03/29 12:53:20;;;;;;;164.80;33.33;;;;;;;;;;5034535;28;20550;-55
2022/03/29 12:55:57;;;;;;;54.90;29.38;;;;;;;;;;5034517;28;20037;-53
2022/03/29 12:58:31;;;;;;;50.22;28.30;;;;;;;;;;5035109;28;20065;-54
2022/03/29 13:00:57;;;;;;;41.72;27.70;;;;;;;;;;5032317;28;20040;-54
2022/03/29 13:03:23;;;;;;;36.58;26.02;;;;;;;;;;5032179;28;20480;-53
2022/03/29 13:05:49;;;;;;;37.75;24.70;;;;;;;;;;5031976;28;20108;-54
2022/03/29 13:08:22;;;;;;;34.65;26.38;;;;;;;;;;5030137;28;20487;-55
2022/03/29 13:10:51;;;;;;;35.25;25.10;;;;;;;;;;5033489;28;20475;-51
2022/03/29 13:13:22;;;;;;;33.23;22.80;;;;;;;;;;5031801;28;20051;-54
2022/03/29 13:15:56;;;;;;;29.13;22.27;;;;;;;;;;5034697;28;20053;-53
2022/03/29 13:18:35;;;;;;;29.60;23.08;;;;;;;;;;5034919;28;20442;-52
2022/03/29 13:21:07;;;;;;;29.85;21.63;;;;;;;;;;5033753;28;20452;-51
2022/03/29 13:23:41;;;;;;;30.08;21.27;;;;;;;;;;5029989;28;20365;-53
2022/03/29 13:26:08;;;;;;;29.58;20.80;;;;;;;;;;5032961;28;20124;-53
2022/03/29 13:28:35;;;;;;;30.88;20.83;;;;;;;;;;5031293;28;20041;-52
2022/03/29 13:31:01;;;;;;;27.75;20.60;;;;;;;;;;5030834;28;20033;-52
2022/03/29 13:33:27;;;;;;;27.52;19.95;;;;;;;;;;5031300;28;20156;-55
2022/03/29 13:35:53;;;;;;;24.35;19.88;;;;;;;;;;5032848;28;20052;-53
2022/03/29 13:38:20;;;;;;;24.90;19.15;;;;;;;;;;5032893;28;20045;-54
2022/03/29 13:40:47;;;;;;;23.55;18.98;;;;;;;;;;5035112;28;21004;-50
2022/03/29 13:43:13;;;;;;;25.30;18.27;;;;;;;;;;5031049;28;20079;-53
2022/03/29 13:45:40;;;;;;;25.85;18.55;;;;;;;;;;5034744;28;20116;-54
2022/03/29 13:48:06;;;;;;;22.60;17.25;;;;;;;;;;5032294;28;20038;-50
2022/03/29 13:50:33;;;;;;;23.00;18.08;;;;;;;;;;5032090;28;21264;-52
2022/03/29 13:53:00;;;;;;;20.20;15.98;;;;;;;;;;5028584;28;20049;-54
2022/03/29 13:55:26;;;;;;;23.35;17.00;;;;;;;;;;5035061;28;20868;-53
2022/03/29 13:57:52;;;;;;;24.95;17.27;;;;;;;;;;5035501;28;20546;-52
2022/03/29 14:00:19;;;;;;;19.15;16.08;;;;;;;;;;5037818;28;20482;-51
2022/03/29 14:02:46;;;;;;;22.52;16.52;;;;;;;;;;5037578;28;20463;-54
2022/03/29 14:05:12;;;;;;;21.77;15.88;;;;;;;;;;5041265;28;20033;-53
2022/03/29 14:07:38;;;;;;;20.80;16.52;;;;;;;;;;5036165;28;20463;-52
2022/03/29 14:10:04;;;;;;;19.45;15.02;;;;;;;;;;5038090;28;20034;-55
2022/03/29 14:12:30;;;;;;;20.80;16.25;;;;;;;;;;5037095;28;20207;-52
2022/03/29 14:14:56;;;;;;;17.08;13.95;;;;;;;;;;5035822;28;20040;-48
2022/03/29 14:17:22;;;;;;;20.92;15.02;;;;;;;;;;5036677;28;20024;-51
2022/03/29 14:19:51;;;;;;;18.45;14.48;;;;;;;;;;5035293;28;20095;-54
2022/03/29 14:22:17;;;;;;;27.45;20.25;;;;;;;;;;5037608;28;22612;-53
2022/03/29 14:24:44;;;;;;;29.77;21.70;;;;;;;;;;5035530;28;20025;-52
2022/03/29 14:27:10;;;;;;;26.05;20.35;;;;;;;;;;5036894;28;20499;-52
2022/03/29 14:29:36;;;;;;;27.63;20.40;;;;;;;;;;5033674;28;20032;-53
2022/03/29 14:32:03;;;;;;;28.17;21.70;;;;;;;;;;5035664;28;20041;-54
2022/03/29 14:34:29;;;;;;;27.75;20.48;;;;;;;;;;5031116;28;20037;-50
2022/03/29 14:36:56;;;;;;;27.58;19.05;;;;;;;;;;5036645;28;20433;-52